Karditsa, Greece
Current Conditions -  °F | °C
As of 4:50 PM on Thursday 27 Nov 2014 (Local Time) from LGLR Reporting Station
Moderate Rain Moderate Rain  
Wind Chill:   Ceiling: 8000
Heat Index:   Visibility: 1.8mi
Dew Point:   Wind: 0mph
Humidity: 100%   Direction: NA
Pressure: 30.15"   Gusts: NA
Location:  39.37°N, 21.92°E
Report Text: LGLR 271350Z 00000KT 3000 RA SCT010 SCT030 OVC080 09/09 Q1021 YLO
Loading
Personal Weather Stations






























Interactive Weather Map New forecast layout! Learn more

10-Day Weather Forecast

Advertisements
Track Severe Weather on mobile